sensor_id;sensor_type;location;lat;lon;timestamp;P1;durP1;ratioP1;P2;durP2;ratioP2
27622;SDS011;15041;45.334;5.622;2023-09-18T00:00:50;28.35;;;7.13;;
27622;SDS011;15041;45.334;5.622;2023-09-18T00:03:17;37.85;;;7.45;;
27622;SDS011;15041;45.334;5.622;2023-09-18T00:05:47;34.00;;;8.65;;
27622;SDS011;15041;45.334;5.622;2023-09-18T00:08:14;34.97;;;7.88;;
27622;SDS011;15041;45.334;5.622;2023-09-18T00:10:42;41.65;;;8.18;;
27622;SDS011;15041;45.334;5.622;2023-09-18T00:13:13;25.90;;;7.07;;
27622;SDS011;15041;45.334;5.622;2023-09-18T00:15:40;32.40;;;8.48;;
27622;SDS011;15041;45.334;5.622;2023-09-18T00:18:10;26.55;;;7.55;;
27622;SDS011;15041;45.334;5.622;2023-09-18T00:20:37;40.08;;;9.05;;
27622;SDS011;15041;45.334;5.622;2023-09-18T00:23:05;38.20;;;8.32;;
27622;SDS011;15041;45.334;5.622;2023-09-18T00:25:33;28.83;;;7.30;;
27622;SDS011;15041;45.334;5.622;2023-09-18T00:28:00;37.30;;;7.05;;
27622;SDS011;15041;45.334;5.622;2023-09-18T00:30:28;31.42;;;7.30;;
27622;SDS011;15041;45.334;5.622;2023-09-18T00:33:01;30.67;;;7.85;;
27622;SDS011;15041;45.334;5.622;2023-09-18T00:35:29;21.70;;;7.25;;
27622;SDS011;15041;45.334;5.622;2023-09-18T00:37:56;34.42;;;7.50;;
27622;SDS011;15041;45.334;5.622;2023-09-18T00:40:24;29.20;;;7.65;;
27622;SDS011;15041;45.334;5.622;2023-09-18T00:42:52;34.88;;;7.90;;
27622;SDS011;15041;45.334;5.622;2023-09-18T00:45:20;35.45;;;7.57;;
27622;SDS011;15041;45.334;5.622;2023-09-18T00:47:47;30.20;;;7.40;;
27622;SDS011;15041;45.334;5.622;2023-09-18T00:50:14;32.00;;;8.40;;
27622;SDS011;15041;45.334;5.622;2023-09-18T00:52:42;32.55;;;8.43;;
27622;SDS011;15041;45.334;5.622;2023-09-18T00:55:10;33.25;;;7.68;;
27622;SDS011;15041;45.334;5.622;2023-09-18T00:57:39;38.83;;;8.68;;
27622;SDS011;15041;45.334;5.622;2023-09-18T01:00:07;25.52;;;8.10;;
27622;SDS011;15041;45.334;5.622;2023-09-18T01:02:35;36.92;;;7.60;;
27622;SDS011;15041;45.334;5.622;2023-09-18T01:05:04;32.28;;;8.60;;
27622;SDS011;15041;45.334;5.622;2023-09-18T01:07:31;30.05;;;7.70;;
27622;SDS011;15041;45.334;5.622;2023-09-18T01:09:59;28.67;;;7.20;;
27622;SDS011;15041;45.334;5.622;2023-09-18T01:12:28;37.65;;;7.68;;
27622;SDS011;15041;45.334;5.622;2023-09-18T01:15:02;30.20;;;7.60;;
27622;SDS011;15041;45.334;5.622;2023-09-18T01:17:39;28.27;;;7.15;;
27622;SDS011;15041;45.334;5.622;2023-09-18T01:20:08;22.77;;;7.22;;
27622;SDS011;15041;45.334;5.622;2023-09-18T01:22:38;36.90;;;7.13;;
27622;SDS011;15041;45.334;5.622;2023-09-18T01:25:06;22.17;;;7.13;;
27622;SDS011;15041;45.334;5.622;2023-09-18T01:27:34;34.80;;;8.10;;
27622;SDS011;15041;45.334;5.622;2023-09-18T01:30:01;28.10;;;7.95;;
27622;SDS011;15041;45.334;5.622;2023-09-18T01:32:29;33.20;;;7.97;;
27622;SDS011;15041;45.334;5.622;2023-09-18T01:34:59;28.42;;;6.85;;
27622;SDS011;15041;45.334;5.622;2023-09-18T01:37:28;27.58;;;7.70;;
27622;SDS011;15041;45.334;5.622;2023-09-18T01:39:58;27.42;;;7.32;;
27622;SDS011;15041;45.334;5.622;2023-09-18T01:42:25;33.55;;;8.00;;
27622;SDS011;15041;45.334;5.622;2023-09-18T01:44:53;28.65;;;7.95;;
27622;SDS011;15041;45.334;5.622;2023-09-18T01:47:21;27.65;;;7.50;;
27622;SDS011;15041;45.334;5.622;2023-09-18T01:49:49;33.38;;;7.60;;
27622;SDS011;15041;45.334;5.622;2023-09-18T01:52:16;27.70;;;7.72;;
27622;SDS011;15041;45.334;5.622;2023-09-18T01:54:44;26.23;;;7.53;;
27622;SDS011;15041;45.334;5.622;2023-09-18T01:57:13;34.55;;;8.57;;
27622;SDS011;15041;45.334;5.622;2023-09-18T01:59:40;32.63;;;7.72;;
27622;SDS011;15041;45.334;5.622;2023-09-18T02:02:09;32.47;;;9.73;;
27622;SDS011;15041;45.334;5.622;2023-09-18T02:04:37;26.67;;;7.70;;
27622;SDS011;15041;45.334;5.622;2023-09-18T02:07:05;34.85;;;8.38;;
27622;SDS011;15041;45.334;5.622;2023-09-18T02:09:34;23.58;;;7.45;;
27622;SDS011;15041;45.334;5.622;2023-09-18T02:12:02;26.27;;;8.23;;
27622;SDS011;15041;45.334;5.622;2023-09-18T02:14:30;40.28;;;8.50;;
27622;SDS011;15041;45.334;5.622;2023-09-18T02:16:58;25.45;;;8.35;;
27622;SDS011;15041;45.334;5.622;2023-09-18T02:19:25;27.60;;;7.97;;
27622;SDS011;15041;45.334;5.622;2023-09-18T02:21:52;28.70;;;7.55;;
27622;SDS011;15041;45.334;5.622;2023-09-18T02:24:23;20.48;;;6.95;;
27622;SDS011;15041;45.334;5.622;2023-09-18T02:26:50;28.38;;;8.50;;
27622;SDS011;15041;45.334;5.622;2023-09-18T02:29:17;28.80;;;7.90;;
27622;SDS011;15041;45.334;5.622;2023-09-18T02:31:46;32.33;;;7.88;;
27622;SDS011;15041;45.334;5.622;2023-09-18T02:34:13;33.47;;;8.00;;
27622;SDS011;15041;45.334;5.622;2023-09-18T02:36:41;34.28;;;12.30;;
27622;SDS011;15041;45.334;5.622;2023-09-18T02:39:08;31.08;;;8.82;;
27622;SDS011;15041;45.334;5.622;2023-09-18T02:41:35;29.58;;;8.43;;
27622;SDS011;15041;45.334;5.622;2023-09-18T02:44:03;24.17;;;7.72;;
27622;SDS011;15041;45.334;5.622;2023-09-18T02:46:31;28.17;;;7.88;;
27622;SDS011;15041;45.334;5.622;2023-09-18T02:48:59;34.90;;;8.80;;
27622;SDS011;15041;45.334;5.622;2023-09-18T02:51:27;31.05;;;7.60;;
27622;SDS011;15041;45.334;5.622;2023-09-18T02:53:57;25.80;;;9.02;;
27622;SDS011;15041;45.334;5.622;2023-09-18T02:56:24;24.95;;;7.40;;
27622;SDS011;15041;45.334;5.622;2023-09-18T02:58:52;30.63;;;8.00;;
27622;SDS011;15041;45.334;5.622;2023-09-18T03:01:19;26.52;;;7.30;;
27622;SDS011;15041;45.334;5.622;2023-09-18T03:03:46;25.40;;;7.35;;
27622;SDS011;15041;45.334;5.622;2023-09-18T03:06:15;30.65;;;8.05;;
27622;SDS011;15041;45.334;5.622;2023-09-18T03:08:42;36.40;;;7.43;;
27622;SDS011;15041;45.334;5.622;2023-09-18T03:11:13;27.23;;;7.82;;
27622;SDS011;15041;45.334;5.622;2023-09-18T03:13:42;43.55;;;8.68;;
27622;SDS011;15041;45.334;5.622;2023-09-18T03:16:12;29.15;;;8.05;;
27622;SDS011;15041;45.334;5.622;2023-09-18T03:18:40;42.15;;;10.13;;
27622;SDS011;15041;45.334;5.622;2023-09-18T03:21:07;36.70;;;8.68;;
27622;SDS011;15041;45.334;5.622;2023-09-18T03:23:35;29.80;;;7.95;;
27622;SDS011;15041;45.334;5.622;2023-09-18T03:26:03;25.40;;;7.55;;
27622;SDS011;15041;45.334;5.622;2023-09-18T03:28:30;34.83;;;8.77;;
27622;SDS011;15041;45.334;5.622;2023-09-18T03:30:58;27.33;;;8.25;;
27622;SDS011;15041;45.334;5.622;2023-09-18T03:33:26;34.28;;;8.77;;
27622;SDS011;15041;45.334;5.622;2023-09-18T03:35:53;28.05;;;8.35;;
27622;SDS011;15041;45.334;5.622;2023-09-18T03:38:26;26.98;;;7.47;;
27622;SDS011;15041;45.334;5.622;2023-09-18T03:40:55;29.17;;;9.02;;
27622;SDS011;15041;45.334;5.622;2023-09-18T03:43:22;39.90;;;9.40;;
27622;SDS011;15041;45.334;5.622;2023-09-18T03:45:49;36.40;;;8.23;;
27622;SDS011;15041;45.334;5.622;2023-09-18T03:48:17;28.38;;;8.43;;
27622;SDS011;15041;45.334;5.622;2023-09-18T03:50:46;31.00;;;8.40;;
27622;SDS011;15041;45.334;5.622;2023-09-18T03:53:14;24.98;;;8.15;;
27622;SDS011;15041;45.334;5.622;2023-09-18T03:55:41;23.92;;;8.07;;
27622;SDS011;15041;45.334;5.622;2023-09-18T03:58:09;29.88;;;7.65;;
27622;SDS011;15041;45.334;5.622;2023-09-18T04:00:37;25.17;;;7.93;;
27622;SDS011;15041;45.334;5.622;2023-09-18T04:03:04;33.53;;;8.65;;
27622;SDS011;15041;45.334;5.622;2023-09-18T04:05:32;31.27;;;8.75;;
27622;SDS011;15041;45.334;5.622;2023-09-18T04:07:59;37.50;;;7.55;;
27622;SDS011;15041;45.334;5.622;2023-09-18T04:10:26;28.10;;;8.52;;
27622;SDS011;15041;45.334;5.622;2023-09-18T04:12:53;37.92;;;8.50;;
27622;SDS011;15041;45.334;5.622;2023-09-18T04:15:22;39.08;;;8.60;;
27622;SDS011;15041;45.334;5.622;2023-09-18T04:17:49;31.90;;;8.38;;
27622;SDS011;15041;45.334;5.622;2023-09-18T04:20:16;44.38;;;8.90;;
27622;SDS011;15041;45.334;5.622;2023-09-18T04:22:45;31.70;;;8.77;;
27622;SDS011;15041;45.334;5.622;2023-09-18T04:25:15;29.88;;;7.95;;
27622;SDS011;15041;45.334;5.622;2023-09-18T04:27:44;23.65;;;6.18;;
27622;SDS011;15041;45.334;5.622;2023-09-18T04:30:11;18.52;;;5.22;;
27622;SDS011;15041;45.334;5.622;2023-09-18T04:32:40;24.63;;;7.25;;
27622;SDS011;15041;45.334;5.622;2023-09-18T04:35:08;24.17;;;6.78;;
27622;SDS011;15041;45.334;5.622;2023-09-18T04:37:37;20.02;;;5.68;;
27622;SDS011;15041;45.334;5.622;2023-09-18T04:40:07;27.80;;;6.47;;
27622;SDS011;15041;45.334;5.622;2023-09-18T04:42:36;32.88;;;7.05;;
27622;SDS011;15041;45.334;5.622;2023-09-18T04:45:05;28.70;;;6.72;;
27622;SDS011;15041;45.334;5.622;2023-09-18T04:47:33;21.70;;;6.43;;
27622;SDS011;15041;45.334;5.622;2023-09-18T04:50:03;29.42;;;8.60;;
27622;SDS011;15041;45.334;5.622;2023-09-18T04:52:32;24.80;;;6.03;;
27622;SDS011;15041;45.334;5.622;2023-09-18T04:54:59;21.50;;;5.80;;
27622;SDS011;15041;45.334;5.622;2023-09-18T04:57:27;23.33;;;5.20;;
27622;SDS011;15041;45.334;5.622;2023-09-18T04:59:54;23.80;;;6.28;;
27622;SDS011;15041;45.334;5.622;2023-09-18T05:02:21;22.15;;;6.47;;
27622;SDS011;15041;45.334;5.622;2023-09-18T05:04:50;11.75;;;4.68;;
27622;SDS011;15041;45.334;5.622;2023-09-18T05:07:19;14.20;;;4.97;;
27622;SDS011;15041;45.334;5.622;2023-09-18T05:09:46;17.17;;;5.43;;
27622;SDS011;15041;45.334;5.622;2023-09-18T05:12:13;12.25;;;3.63;;
27622;SDS011;15041;45.334;5.622;2023-09-18T05:14:41;6.80;;;3.67;;
27622;SDS011;15041;45.334;5.622;2023-09-18T05:17:09;16.90;;;3.70;;
27622;SDS011;15041;45.334;5.622;2023-09-18T05:19:38;10.48;;;2.85;;
27622;SDS011;15041;45.334;5.622;2023-09-18T05:22:05;10.43;;;3.03;;
27622;SDS011;15041;45.334;5.622;2023-09-18T05:24:34;7.53;;;3.17;;
27622;SDS011;15041;45.334;5.622;2023-09-18T05:27:01;6.45;;;2.30;;
27622;SDS011;15041;45.334;5.622;2023-09-18T05:29:31;8.57;;;2.90;;
27622;SDS011;15041;45.334;5.622;2023-09-18T05:31:58;5.60;;;3.15;;
27622;SDS011;15041;45.334;5.622;2023-09-18T05:34:26;6.72;;;2.60;;
27622;SDS011;15041;45.334;5.622;2023-09-18T05:36:53;5.80;;;2.53;;
27622;SDS011;15041;45.334;5.622;2023-09-18T05:39:20;9.43;;;3.08;;
27622;SDS011;15041;45.334;5.622;2023-09-18T05:41:48;4.50;;;2.95;;
27622;SDS011;15041;45.334;5.622;2023-09-18T05:44:16;7.72;;;2.53;;
27622;SDS011;15041;45.334;5.622;2023-09-18T05:46:43;7.95;;;2.58;;
27622;SDS011;15041;45.334;5.622;2023-09-18T05:49:10;12.25;;;3.33;;
27622;SDS011;15041;45.334;5.622;2023-09-18T05:51:38;13.93;;;3.25;;
27622;SDS011;15041;45.334;5.622;2023-09-18T05:54:05;14.57;;;3.30;;
27622;SDS011;15041;45.334;5.622;2023-09-18T05:56:33;6.50;;;2.45;;
27622;SDS011;15041;45.334;5.622;2023-09-18T05:59:01;4.03;;;2.53;;
27622;SDS011;15041;45.334;5.622;2023-09-18T06:01:29;5.00;;;2.67;;
27622;SDS011;15041;45.334;5.622;2023-09-18T06:03:56;7.18;;;3.08;;
27622;SDS011;15041;45.334;5.622;2023-09-18T06:06:23;12.40;;;3.05;;
27622;SDS011;15041;45.334;5.622;2023-09-18T06:08:52;12.68;;;3.20;;
27622;SDS011;15041;45.334;5.622;2023-09-18T06:11:19;6.53;;;3.05;;
27622;SDS011;15041;45.334;5.622;2023-09-18T06:13:46;8.48;;;3.13;;
27622;SDS011;15041;45.334;5.622;2023-09-18T06:16:15;11.07;;;3.53;;
27622;SDS011;15041;45.334;5.622;2023-09-18T06:18:42;4.97;;;3.45;;
27622;SDS011;15041;45.334;5.622;2023-09-18T06:21:09;6.88;;;3.30;;
27622;SDS011;15041;45.334;5.622;2023-09-18T06:23:36;11.90;;;3.40;;
27622;SDS011;15041;45.334;5.622;2023-09-18T06:26:04;11.48;;;3.80;;
27622;SDS011;15041;45.334;5.622;2023-09-18T06:28:31;9.30;;;3.40;;
27622;SDS011;15041;45.334;5.622;2023-09-18T06:30:58;9.00;;;3.70;;
27622;SDS011;15041;45.334;5.622;2023-09-18T06:33:28;9.55;;;3.25;;
27622;SDS011;15041;45.334;5.622;2023-09-18T06:35:55;10.02;;;4.18;;
27622;SDS011;15041;45.334;5.622;2023-09-18T06:38:22;9.38;;;3.75;;
27622;SDS011;15041;45.334;5.622;2023-09-18T06:40:49;6.80;;;2.90;;
27622;SDS011;15041;45.334;5.622;2023-09-18T06:43:18;9.43;;;2.88;;
27622;SDS011;15041;45.334;5.622;2023-09-18T06:45:45;9.10;;;3.08;;
27622;SDS011;15041;45.334;5.622;2023-09-18T06:48:12;8.93;;;3.17;;
27622;SDS011;15041;45.334;5.622;2023-09-18T06:50:42;8.57;;;3.30;;
27622;SDS011;15041;45.334;5.622;2023-09-18T06:53:09;6.78;;;2.80;;
27622;SDS011;15041;45.334;5.622;2023-09-18T06:55:37;12.63;;;3.30;;
27622;SDS011;15041;45.334;5.622;2023-09-18T06:58:04;9.13;;;2.50;;
27622;SDS011;15041;45.334;5.622;2023-09-18T07:00:31;5.38;;;2.40;;
27622;SDS011;15041;45.334;5.622;2023-09-18T07:02:58;6.88;;;2.58;;
27622;SDS011;15041;45.334;5.622;2023-09-18T07:05:25;12.30;;;2.55;;
27622;SDS011;15041;45.334;5.622;2023-09-18T07:07:54;14.52;;;3.70;;
27622;SDS011;15041;45.334;5.622;2023-09-18T07:10:22;15.35;;;4.35;;
27622;SDS011;15041;45.334;5.622;2023-09-18T07:12:49;14.45;;;4.63;;
27622;SDS011;15041;45.334;5.622;2023-09-18T07:15:17;15.88;;;4.65;;
27622;SDS011;15041;45.334;5.622;2023-09-18T07:17:44;11.05;;;4.03;;
27622;SDS011;15041;45.334;5.622;2023-09-18T07:20:13;5.88;;;2.40;;
27622;SDS011;15041;45.334;5.622;2023-09-18T07:22:44;4.45;;;2.50;;
27622;SDS011;15041;45.334;5.622;2023-09-18T07:25:14;4.53;;;2.55;;
27622;SDS011;15041;45.334;5.622;2023-09-18T07:27:42;6.53;;;2.20;;
27622;SDS011;15041;45.334;5.622;2023-09-18T07:30:10;5.63;;;2.30;;
27622;SDS011;15041;45.334;5.622;2023-09-18T07:32:39;1.75;;;1.33;;
27622;SDS011;15041;45.334;5.622;2023-09-18T07:35:07;3.63;;;1.70;;
27622;SDS011;15041;45.334;5.622;2023-09-18T07:37:35;1.42;;;1.33;;
27622;SDS011;15041;45.334;5.622;2023-09-18T07:40:03;5.80;;;2.03;;
27622;SDS011;15041;45.334;5.622;2023-09-18T07:42:33;3.45;;;1.77;;
27622;SDS011;15041;45.334;5.622;2023-09-18T07:45:00;3.58;;;1.80;;
27622;SDS011;15041;45.334;5.622;2023-09-18T07:47:27;2.65;;;1.73;;
27622;SDS011;15041;45.334;5.622;2023-09-18T07:49:56;3.45;;;1.33;;
27622;SDS011;15041;45.334;5.622;2023-09-18T07:52:24;3.35;;;1.20;;
27622;SDS011;15041;45.334;5.622;2023-09-18T07:54:51;1.00;;;1.00;;
27622;SDS011;15041;45.334;5.622;2023-09-18T07:57:18;1.92;;;1.15;;
27622;SDS011;15041;45.334;5.622;2023-09-18T07:59:49;1.77;;;1.23;;
27622;SDS011;15041;45.334;5.622;2023-09-18T08:02:17;2.55;;;1.10;;
27622;SDS011;15041;45.334;5.622;2023-09-18T08:04:44;2.30;;;1.30;;
27622;SDS011;15041;45.334;5.622;2023-09-18T08:07:11;2.08;;;1.38;;
27622;SDS011;15041;45.334;5.622;2023-09-18T08:09:39;5.75;;;2.08;;
27622;SDS011;15041;45.334;5.622;2023-09-18T08:12:07;12.73;;;3.03;;
27622;SDS011;15041;45.334;5.622;2023-09-18T08:14:35;13.40;;;2.95;;
27622;SDS011;15041;45.334;5.622;2023-09-18T08:17:04;3.88;;;2.65;;
27622;SDS011;15041;45.334;5.622;2023-09-18T08:19:32;9.38;;;2.63;;
27622;SDS011;15041;45.334;5.622;2023-09-18T08:22:01;6.47;;;2.40;;
27622;SDS011;15041;45.334;5.622;2023-09-18T08:24:29;5.25;;;2.30;;
27622;SDS011;15041;45.334;5.622;2023-09-18T08:26:57;6.28;;;2.10;;
27622;SDS011;15041;45.334;5.622;2023-09-18T08:29:24;4.25;;;1.35;;
27622;SDS011;15041;45.334;5.622;2023-09-18T08:31:51;4.88;;;1.52;;
27622;SDS011;15041;45.334;5.622;2023-09-18T08:34:20;2.70;;;2.13;;
27622;SDS011;15041;45.334;5.622;2023-09-18T08:36:47;2.85;;;1.55;;
27622;SDS011;15041;45.334;5.622;2023-09-18T08:39:14;3.40;;;1.52;;
27622;SDS011;15041;45.334;5.622;2023-09-18T08:41:42;1.60;;;1.50;;
27622;SDS011;15041;45.334;5.622;2023-09-18T08:44:10;2.67;;;1.50;;
27622;SDS011;15041;45.334;5.622;2023-09-18T08:46:37;2.30;;;1.50;;
27622;SDS011;15041;45.334;5.622;2023-09-18T08:49:04;4.30;;;1.60;;
27622;SDS011;15041;45.334;5.622;2023-09-18T08:51:33;2.70;;;1.65;;
27622;SDS011;15041;45.334;5.622;2023-09-18T08:54:02;4.90;;;1.70;;
27622;SDS011;15041;45.334;5.622;2023-09-18T08:56:31;7.28;;;1.60;;
27622;SDS011;15041;45.334;5.622;2023-09-18T08:59:00;8.75;;;2.10;;
27622;SDS011;15041;45.334;5.622;2023-09-18T09:01:27;5.32;;;2.08;;
27622;SDS011;15041;45.334;5.622;2023-09-18T09:03:55;7.60;;;1.98;;
27622;SDS011;15041;45.334;5.622;2023-09-18T09:06:22;3.47;;;2.20;;
27622;SDS011;15041;45.334;5.622;2023-09-18T09:08:50;4.22;;;2.03;;
27622;SDS011;15041;45.334;5.622;2023-09-18T09:11:18;5.10;;;2.38;;
27622;SDS011;15041;45.334;5.622;2023-09-18T09:13:46;7.70;;;3.10;;
27622;SDS011;15041;45.334;5.622;2023-09-18T09:16:13;3.80;;;2.15;;
27622;SDS011;15041;45.334;5.622;2023-09-18T09:18:47;5.93;;;2.38;;
27622;SDS011;15041;45.334;5.622;2023-09-18T09:21:16;3.67;;;2.13;;
27622;SDS011;15041;45.334;5.622;2023-09-18T09:23:47;8.25;;;2.15;;
27622;SDS011;15041;45.334;5.622;2023-09-18T09:26:19;3.22;;;2.13;;
27622;SDS011;15041;45.334;5.622;2023-09-18T09:28:47;5.72;;;2.50;;
27622;SDS011;15041;45.334;5.622;2023-09-18T09:31:24;8.65;;;3.33;;
27622;SDS011;15041;45.334;5.622;2023-09-18T09:33:54;7.47;;;3.35;;
27622;SDS011;15041;45.334;5.622;2023-09-18T09:36:22;4.25;;;2.17;;
27622;SDS011;15041;45.334;5.622;2023-09-18T09:38:54;5.75;;;2.10;;
27622;SDS011;15041;45.334;5.622;2023-09-18T09:41:23;2.97;;;2.10;;
27622;SDS011;15041;45.334;5.622;2023-09-18T09:43:53;6.55;;;2.00;;
27622;SDS011;15041;45.334;5.622;2023-09-18T09:46:21;6.53;;;2.33;;
27622;SDS011;15041;45.334;5.622;2023-09-18T09:49:00;4.90;;;2.22;;
27622;SDS011;15041;45.334;5.622;2023-09-18T09:51:29;4.70;;;2.30;;
27622;SDS011;15041;45.334;5.622;2023-09-18T09:53:56;7.80;;;2.65;;
27622;SDS011;15041;45.334;5.622;2023-09-18T09:56:43;10.65;;;3.10;;
27622;SDS011;15041;45.334;5.622;2023-09-18T09:59:11;5.53;;;2.22;;
27622;SDS011;15041;45.334;5.622;2023-09-18T10:01:40;3.92;;;2.00;;
27622;SDS011;15041;45.334;5.622;2023-09-18T10:04:11;4.10;;;2.13;;
27622;SDS011;15041;45.334;5.622;2023-09-18T10:06:43;4.78;;;2.40;;
27622;SDS011;15041;45.334;5.622;2023-09-18T10:09:11;7.05;;;2.47;;
27622;SDS011;15041;45.334;5.622;2023-09-18T10:11:41;4.85;;;2.60;;
27622;SDS011;15041;45.334;5.622;2023-09-18T10:14:14;5.70;;;1.60;;
27622;SDS011;15041;45.334;5.622;2023-09-18T10:16:45;1.58;;;1.40;;
27622;SDS011;15041;45.334;5.622;2023-09-18T10:19:18;1.48;;;1.38;;
27622;SDS011;15041;45.334;5.622;2023-09-18T10:21:57;3.75;;;1.90;;
27622;SDS011;15041;45.334;5.622;2023-09-18T10:24:33;3.45;;;1.70;;
27622;SDS011;15041;45.334;5.622;2023-09-18T10:27:05;6.05;;;2.47;;
27622;SDS011;15041;45.334;5.622;2023-09-18T10:29:35;7.22;;;2.40;;
27622;SDS011;15041;45.334;5.622;2023-09-18T10:32:04;3.65;;;1.70;;
27622;SDS011;15041;45.334;5.622;2023-09-18T10:34:34;5.43;;;1.70;;
27622;SDS011;15041;45.334;5.622;2023-09-18T10:37:01;2.83;;;1.50;;
27622;SDS011;15041;45.334;5.622;2023-09-18T10:39:33;4.13;;;2.05;;
27622;SDS011;15041;45.334;5.622;2023-09-18T10:42:07;3.50;;;2.08;;
27622;SDS011;15041;45.334;5.622;2023-09-18T10:44:35;4.80;;;2.35;;
27622;SDS011;15041;45.334;5.622;2023-09-18T10:47:05;4.40;;;2.22;;
27622;SDS011;15041;45.334;5.622;2023-09-18T10:49:35;3.25;;;1.90;;
27622;SDS011;15041;45.334;5.622;2023-09-18T10:52:02;7.18;;;2.65;;
27622;SDS011;15041;45.334;5.622;2023-09-18T10:54:30;3.75;;;1.50;;
27622;SDS011;15041;45.334;5.622;2023-09-18T10:56:59;4.55;;;2.00;;
27622;SDS011;15041;45.334;5.622;2023-09-18T10:59:29;3.00;;;1.73;;
27622;SDS011;15041;45.334;5.622;2023-09-18T11:02:00;3.05;;;1.80;;
27622;SDS011;15041;45.334;5.622;2023-09-18T11:04:30;3.38;;;1.98;;
27622;SDS011;15041;45.334;5.622;2023-09-18T11:07:01;2.55;;;1.80;;
27622;SDS011;15041;45.334;5.622;2023-09-18T11:09:31;4.93;;;2.35;;
27622;SDS011;15041;45.334;5.622;2023-09-18T11:12:09;4.25;;;1.90;;
27622;SDS011;15041;45.334;5.622;2023-09-18T11:14:46;4.32;;;1.92;;
27622;SDS011;15041;45.334;5.622;2023-09-18T11:17:28;3.08;;;1.80;;
27622;SDS011;15041;45.334;5.622;2023-09-18T11:20:06;3.40;;;2.05;;
27622;SDS011;15041;45.334;5.622;2023-09-18T11:22:37;3.35;;;1.77;;
27622;SDS011;15041;45.334;5.622;2023-09-18T11:28:04;14.30;;;2.13;;
27622;SDS011;15041;45.334;5.622;2023-09-18T11:30:35;5.18;;;1.83;;
27622;SDS011;15041;45.334;5.622;2023-09-18T11:33:05;2.63;;;1.90;;
27622;SDS011;15041;45.334;5.622;2023-09-18T11:35:34;2.67;;;2.20;;
27622;SDS011;15041;45.334;5.622;2023-09-18T11:38:03;3.80;;;2.33;;
27622;SDS011;15041;45.334;5.622;2023-09-18T11:40:32;3.38;;;2.33;;
27622;SDS011;15041;45.334;5.622;2023-09-18T11:43:19;4.57;;;2.00;;
27622;SDS011;15041;45.334;5.622;2023-09-18T11:45:56;5.25;;;2.30;;
27622;SDS011;15041;45.334;5.622;2023-09-18T11:48:25;4.78;;;2.53;;
27622;SDS011;15041;45.334;5.622;2023-09-18T11:50:55;4.65;;;2.20;;
27622;SDS011;15041;45.334;5.622;2023-09-18T11:53:24;4.07;;;2.50;;
27622;SDS011;15041;45.334;5.622;2023-09-18T11:55:54;3.63;;;2.13;;
27622;SDS011;15041;45.334;5.622;2023-09-18T11:58:22;5.15;;;2.25;;
27622;SDS011;15041;45.334;5.622;2023-09-18T12:00:49;7.68;;;2.30;;
27622;SDS011;15041;45.334;5.622;2023-09-18T12:03:19;2.75;;;2.15;;
27622;SDS011;15041;45.334;5.622;2023-09-18T12:05:53;3.50;;;2.13;;
27622;SDS011;15041;45.334;5.622;2023-09-18T12:08:23;2.70;;;2.45;;
27622;SDS011;15041;45.334;5.622;2023-09-18T12:10:52;4.22;;;2.00;;
27622;SDS011;15041;45.334;5.622;2023-09-18T12:13:20;3.22;;;1.95;;
27622;SDS011;15041;45.334;5.622;2023-09-18T12:15:47;3.28;;;2.53;;
27622;SDS011;15041;45.334;5.622;2023-09-18T12:18:15;5.40;;;2.42;;
27622;SDS011;15041;45.334;5.622;2023-09-18T12:20:47;5.60;;;2.30;;
27622;SDS011;15041;45.334;5.622;2023-09-18T12:23:15;6.35;;;2.40;;
27622;SDS011;15041;45.334;5.622;2023-09-18T12:25:45;4.60;;;2.72;;
27622;SDS011;15041;45.334;5.622;2023-09-18T12:28:14;4.30;;;2.33;;
27622;SDS011;15041;45.334;5.622;2023-09-18T12:30:42;6.10;;;3.05;;
27622;SDS011;15041;45.334;5.622;2023-09-18T12:33:12;5.85;;;2.30;;
27622;SDS011;15041;45.334;5.622;2023-09-18T12:35:40;6.78;;;2.75;;
27622;SDS011;15041;45.334;5.622;2023-09-18T12:38:15;4.97;;;2.67;;
27622;SDS011;15041;45.334;5.622;2023-09-18T12:40:44;4.55;;;3.00;;
27622;SDS011;15041;45.334;5.622;2023-09-18T12:43:12;5.50;;;2.17;;
27622;SDS011;15041;45.334;5.622;2023-09-18T12:45:42;4.70;;;2.40;;
27622;SDS011;15041;45.334;5.622;2023-09-18T12:48:11;6.50;;;2.42;;
27622;SDS011;15041;45.334;5.622;2023-09-18T12:50:40;3.00;;;2.50;;
27622;SDS011;15041;45.334;5.622;2023-09-18T12:53:08;4.50;;;2.25;;
27622;SDS011;15041;45.334;5.622;2023-09-18T12:55:37;3.13;;;1.85;;
27622;SDS011;15041;45.334;5.622;2023-09-18T12:58:05;2.03;;;1.90;;
27622;SDS011;15041;45.334;5.622;2023-09-18T13:00:34;2.03;;;1.60;;
27622;SDS011;15041;45.334;5.622;2023-09-18T13:03:01;3.88;;;2.30;;
27622;SDS011;15041;45.334;5.622;2023-09-18T13:05:30;2.15;;;1.95;;
27622;SDS011;15041;45.334;5.622;2023-09-18T13:08:02;5.03;;;1.80;;
27622;SDS011;15041;45.334;5.622;2023-09-18T13:10:42;7.63;;;2.40;;
27622;SDS011;15041;45.334;5.622;2023-09-18T13:13:15;3.92;;;2.30;;
27622;SDS011;15041;45.334;5.622;2023-09-18T13:15:44;2.47;;;2.08;;
27622;SDS011;15041;45.334;5.622;2023-09-18T13:18:13;4.22;;;2.63;;
27622;SDS011;15041;45.334;5.622;2023-09-18T13:20:41;5.50;;;2.40;;
27622;SDS011;15041;45.334;5.622;2023-09-18T13:23:09;5.97;;;2.17;;
27622;SDS011;15041;45.334;5.622;2023-09-18T13:25:38;6.03;;;2.47;;
27622;SDS011;15041;45.334;5.622;2023-09-18T13:28:11;2.88;;;2.03;;
27622;SDS011;15041;45.334;5.622;2023-09-18T13:30:39;2.67;;;1.95;;
27622;SDS011;15041;45.334;5.622;2023-09-18T13:33:08;2.45;;;2.03;;
27622;SDS011;15041;45.334;5.622;2023-09-18T13:35:37;2.40;;;1.80;;
27622;SDS011;15041;45.334;5.622;2023-09-18T13:38:05;2.60;;;1.95;;
27622;SDS011;15041;45.334;5.622;2023-09-18T13:40:34;3.50;;;1.70;;
27622;SDS011;15041;45.334;5.622;2023-09-18T13:43:03;4.30;;;1.85;;
27622;SDS011;15041;45.334;5.622;2023-09-18T13:45:32;4.25;;;2.10;;
27622;SDS011;15041;45.334;5.622;2023-09-18T13:48:01;4.13;;;2.45;;
27622;SDS011;15041;45.334;5.622;2023-09-18T13:50:28;3.00;;;2.13;;
27622;SDS011;15041;45.334;5.622;2023-09-18T13:52:55;3.58;;;1.80;;
27622;SDS011;15041;45.334;5.622;2023-09-18T13:55:25;3.47;;;2.20;;
27622;SDS011;15041;45.334;5.622;2023-09-18T13:57:52;3.25;;;2.22;;
27622;SDS011;15041;45.334;5.622;2023-09-18T14:00:19;5.07;;;2.20;;
27622;SDS011;15041;45.334;5.622;2023-09-18T14:02:48;4.85;;;1.88;;
27622;SDS011;15041;45.334;5.622;2023-09-18T14:05:16;7.28;;;2.65;;
27622;SDS011;15041;45.334;5.622;2023-09-18T14:07:45;4.43;;;2.15;;
27622;SDS011;15041;45.334;5.622;2023-09-18T14:10:12;3.15;;;2.25;;
27622;SDS011;15041;45.334;5.622;2023-09-18T14:12:40;3.83;;;1.90;;
27622;SDS011;15041;45.334;5.622;2023-09-18T14:15:08;5.30;;;2.47;;
27622;SDS011;15041;45.334;5.622;2023-09-18T14:17:36;2.33;;;1.90;;
27622;SDS011;15041;45.334;5.622;2023-09-18T14:20:06;3.38;;;2.40;;
27622;SDS011;15041;45.334;5.622;2023-09-18T14:22:35;3.20;;;1.60;;
27622;SDS011;15041;45.334;5.622;2023-09-18T14:25:02;2.60;;;2.00;;
27622;SDS011;15041;45.334;5.622;2023-09-18T14:27:31;1.80;;;1.70;;
27622;SDS011;15041;45.334;5.622;2023-09-18T14:30:00;3.25;;;2.10;;
27622;SDS011;15041;45.334;5.622;2023-09-18T14:32:31;3.90;;;2.67;;
27622;SDS011;15041;45.334;5.622;2023-09-18T14:34:59;2.40;;;1.58;;
27622;SDS011;15041;45.334;5.622;2023-09-18T14:37:29;3.92;;;2.10;;
27622;SDS011;15041;45.334;5.622;2023-09-18T14:39:56;3.42;;;1.80;;
27622;SDS011;15041;45.334;5.622;2023-09-18T14:42:23;3.47;;;1.70;;
27622;SDS011;15041;45.334;5.622;2023-09-18T14:44:51;2.50;;;1.90;;
27622;SDS011;15041;45.334;5.622;2023-09-18T14:47:18;3.90;;;1.98;;
27622;SDS011;15041;45.334;5.622;2023-09-18T14:49:46;3.08;;;2.42;;
27622;SDS011;15041;45.334;5.622;2023-09-18T14:52:13;5.85;;;1.75;;
27622;SDS011;15041;45.334;5.622;2023-09-18T14:54:43;2.40;;;1.70;;